Time;durP1;ratioP1;P1;durP2;ratioP2;P2;SDS_P1;SDS_P2;PMS_P1;PMS_P2;Temp;Humidity;BMP_temperature;BMP_pressure;BME280_temperature;BME280_humidity;BME280_pressure;Samples;Min_cycle;Max_cycle;Signal;HPM_P1;HPM_P2
2022/11/19 00:00:24;;;;;;;14.45;7.07;;;5.00;99.90;;;;;;4977987;28;20093;-68
2022/11/19 00:02:53;;;;;;;15.07;7.68;;;5.00;99.90;;;;;;4960811;28;20042;-68
2022/11/19 00:05:19;;;;;;;14.27;7.55;;;5.00;99.90;;;;;;4978337;28;20027;-68
2022/11/19 00:07:44;;;;;;;13.98;7.22;;;4.90;99.90;;;;;;4960852;28;20033;-68
2022/11/19 00:10:10;;;;;;;15.23;6.72;;;4.90;99.90;;;;;;4978175;28;20042;-68
2022/11/19 00:12:54;;;;;;;15.00;7.45;;;4.70;99.90;;;;;;4960582;28;20027;-68
2022/11/19 00:15:20;;;;;;;17.08;8.15;;;4.70;99.90;;;;;;4960937;28;20023;-68
2022/11/19 00:17:45;;;;;;;14.00;7.22;;;4.60;99.90;;;;;;4960599;28;20073;-68
2022/11/19 00:20:11;;;;;;;12.82;7.68;;;4.80;99.90;;;;;;4961474;28;20077;-69
2022/11/19 00:22:37;;;;;;;17.20;8.13;;;4.80;99.90;;;;;;4960526;28;20077;-69
2022/11/19 00:25:04;;;;;;;14.77;8.02;;;4.80;99.90;;;;;;4960633;28;20037;-69
2022/11/19 00:27:30;;;;;;;17.05;8.18;;;4.90;99.90;;;;;;4977853;28;20027;-69
2022/11/19 00:29:55;;;;;;;17.75;7.97;;;5.00;99.90;;;;;;4960488;28;20054;-69
2022/11/19 00:32:21;;;;;;;16.70;8.15;;;5.10;99.90;;;;;;4960232;28;20096;-69
2022/11/19 00:34:46;;;;;;;16.52;7.50;;;5.00;99.90;;;;;;4977675;28;20054;-68
2022/11/19 00:37:12;;;;;;;15.07;8.40;;;5.20;99.90;;;;;;4978009;28;20030;-68
2022/11/19 00:39:37;;;;;;;16.80;8.60;;;5.10;99.90;;;;;;4960888;28;20030;-68
2022/11/19 00:42:03;;;;;;;19.35;9.07;;;5.20;99.90;;;;;;4960140;28;20031;-68
2022/11/19 00:44:28;;;;;;;15.95;8.45;;;5.10;99.90;;;;;;4960297;28;20026;-68
2022/11/19 00:46:54;;;;;;;20.05;9.15;;;5.10;99.90;;;;;;4960268;28;20022;-68
2022/11/19 00:49:20;;;;;;;19.80;9.43;;;5.30;99.90;;;;;;4960153;28;20044;-68
2022/11/19 00:51:45;;;;;;;19.60;10.27;;;5.30;99.90;;;;;;4960042;28;20027;-68
2022/11/19 00:54:11;;;;;;;18.30;10.02;;;5.30;99.90;;;;;;4960350;28;20054;-68
2022/11/19 00:56:37;;;;;;;21.05;8.82;;;5.20;99.90;;;;;;4959974;28;20545;-68
2022/11/19 00:59:03;;;;;;;20.52;9.00;;;5.10;99.90;;;;;;4977316;28;20110;-68
2022/11/19 01:01:29;;;;;;;21.70;10.25;;;5.20;99.90;;;;;;4977856;28;20031;-68
2022/11/19 01:03:54;;;;;;;18.40;10.07;;;5.10;99.90;;;;;;4978105;28;20050;-68
2022/11/19 01:06:23;;;;;;;19.67;9.88;;;4.90;99.90;;;;;;4959862;28;20058;-68
2022/11/19 01:08:50;;;;;;;22.92;8.95;;;4.60;99.90;;;;;;4960116;28;20094;-68
2022/11/19 01:11:21;;;;;;;20.77;10.27;;;4.60;99.90;;;;;;4959635;28;20035;-68
2022/11/19 01:13:47;;;;;;;23.27;11.57;;;4.60;99.90;;;;;;4959449;28;20031;-68
2022/11/19 01:16:28;;;;;;;23.15;11.10;;;4.50;99.90;;;;;;4959624;28;20041;-68
2022/11/19 01:18:54;;;;;;;20.92;9.98;;;4.70;99.90;;;;;;4959611;28;20034;-68
2022/11/19 01:21:21;;;;;;;20.67;10.57;;;4.70;99.90;;;;;;4959889;28;20023;-68
2022/11/19 01:23:47;;;;;;;25.38;10.90;;;4.60;99.90;;;;;;4959723;28;20019;-68
2022/11/19 01:26:14;;;;;;;23.05;12.07;;;4.80;99.90;;;;;;4976724;28;20057;-68
2022/11/19 01:28:40;;;;;;;26.15;11.75;;;4.80;99.90;;;;;;4959524;28;20026;-68
2022/11/19 01:31:11;;;;;;;24.55;11.68;;;4.40;99.90;;;;;;4960179;28;20018;-68
2022/11/19 01:33:37;;;;;;;25.88;12.57;;;4.40;99.90;;;;;;4959166;28;20023;-68
2022/11/19 01:36:05;;;;;;;25.98;11.55;;;4.30;99.90;;;;;;4976659;28;20033;-68
2022/11/19 01:38:31;;;;;;;24.88;11.68;;;4.50;99.90;;;;;;4958955;28;20355;-68
2022/11/19 01:40:57;;;;;;;28.50;11.95;;;4.30;99.90;;;;;;4959092;28;20042;-68
2022/11/19 01:43:46;;;;;;;28.60;13.02;;;4.40;99.90;;;;;;4976528;28;20113;-69
2022/11/19 01:46:15;;;;;;;26.35;11.95;;;4.50;99.90;;;;;;4959654;28;20109;-69
2022/11/19 01:49:18;;;;;;;28.48;12.68;;;4.20;99.90;;;;;;4959145;28;20044;-69
2022/11/19 01:52:13;;;;;;;27.83;12.98;;;4.30;99.90;;;;;;4958986;28;20023;-68
2022/11/19 01:54:44;;;;;;;28.05;12.68;;;4.30;99.90;;;;;;4901126;29;20032;-69
2022/11/19 01:57:13;;;;;;;28.50;12.43;;;4.40;99.90;;;;;;4901492;29;20024;-69
2022/11/19 01:59:42;;;;;;;27.23;13.23;;;4.40;99.90;;;;;;4901580;29;20107;-69
2022/11/19 02:02:08;;;;;;;29.33;13.02;;;4.40;99.90;;;;;;4900947;29;20188;-68
2022/11/19 02:04:35;;;;;;;30.15;13.50;;;4.40;99.90;;;;;;4916920;29;20055;-68
2022/11/19 02:07:01;;;;;;;28.10;13.85;;;4.50;99.90;;;;;;4900831;29;20032;-68
2022/11/19 02:09:27;;;;;;;30.13;12.63;;;4.20;99.90;;;;;;4916558;29;20032;-68
2022/11/19 02:12:18;;;;;;;29.98;13.73;;;4.20;99.90;;;;;;4901177;29;20050;-68
2022/11/19 02:15:09;;;;;;;33.57;14.90;;;4.10;99.90;;;;;;4875933;29;20036;-68
2022/11/19 02:17:46;;;;;;;33.45;14.00;;;4.00;99.90;;;;;;4916654;29;20037;-68
2022/11/19 02:20:48;;;;;;;35.08;15.20;;;4.00;99.90;;;;;;4900631;29;20112;-68
2022/11/19 02:23:13;;;;;;;30.23;13.70;;;4.30;99.90;;;;;;4916288;29;20040;-68
2022/11/19 02:25:48;;;;;;;33.10;13.85;;;4.40;99.90;;;;;;4900247;29;20036;-68
2022/11/19 02:28:32;;;;;;;31.83;14.07;;;4.40;99.90;;;;;;4916262;29;20043;-68
2022/11/19 02:31:10;;;;;;;30.20;13.98;;;4.10;99.90;;;;;;4928096;28;20038;-68
2022/11/19 02:34:02;;;;;;;33.33;13.82;;;4.10;99.90;;;;;;4958321;28;20026;-68
2022/11/19 02:36:34;;;;;;;34.95;15.07;;;4.20;99.90;;;;;;4975583;28;20019;-68
2022/11/19 02:39:04;;;;;;;31.02;14.05;;;4.30;99.90;;;;;;4959021;28;20113;-68
2022/11/19 02:41:43;;;;;;;32.50;14.30;;;4.30;99.90;;;;;;4958434;28;20019;-68
2022/11/19 02:47:19;;;;;;;27.88;13.77;;;3.90;99.90;;;;;;4975454;28;20026;-68
2022/11/19 02:49:47;;;;;;;28.52;14.10;;;4.10;99.90;;;;;;4958728;28;20027;-68
2022/11/19 02:52:17;;;;;;;31.27;14.02;;;4.10;99.90;;;;;;4957728;28;20101;-68
2022/11/19 02:54:42;;;;;;;30.95;13.75;;;4.20;99.90;;;;;;4958217;28;20025;-68
2022/11/19 02:57:10;;;;;;;35.03;14.45;;;4.30;99.90;;;;;;4975478;28;20018;-68
2022/11/19 03:05:41;;;;;;;32.45;15.02;;;4.10;99.90;;;;;;4975595;28;20034;-68
2022/11/19 03:08:06;;;;;;;35.75;16.33;;;4.10;99.90;;;;;;4957700;28;20027;-68
2022/11/19 03:10:43;;;;;;;28.90;13.55;;;3.80;99.90;;;;;;4975221;28;20038;-68
2022/11/19 03:19:05;;;;;;;35.03;14.82;;;4.20;99.90;;;;;;4975384;28;20046;-68
2022/11/19 03:21:42;;;;;;;34.38;14.25;;;4.00;99.90;;;;;;4957529;28;20018;-68
2022/11/19 03:24:15;;;;;;;30.20;12.90;;;4.10;99.90;;;;;;4957417;28;20098;-68
2022/11/19 03:27:07;;;;;;;29.63;13.15;;;4.10;99.90;;;;;;4957965;28;20093;-68
2022/11/19 03:29:37;;;;;;;31.25;13.70;;;3.90;99.90;;;;;;4974402;28;20038;-68
2022/11/19 03:32:07;;;;;;;29.27;13.70;;;4.00;99.90;;;;;;4974410;28;20031;-68
2022/11/19 03:34:34;;;;;;;29.88;12.70;;;4.00;99.90;;;;;;4957166;28;20022;-68
2022/11/19 03:37:02;;;;;;;35.17;15.93;;;4.00;99.90;;;;;;4957268;28;20027;-68
2022/11/19 03:39:28;;;;;;;35.38;14.85;;;3.80;99.90;;;;;;4957224;28;20026;-68
2022/11/19 03:41:56;;;;;;;33.53;13.82;;;3.80;99.90;;;;;;4957111;28;20022;-68
2022/11/19 03:44:35;;;;;;;31.60;14.35;;;3.60;99.90;;;;;;4974803;28;20077;-68
2022/11/19 03:47:06;;;;;;;32.72;14.15;;;3.70;99.90;;;;;;4957086;28;20556;-68
2022/11/19 03:49:36;;;;;;;37.10;15.60;;;3.50;99.90;;;;;;4957914;28;20122;-68
2022/11/19 03:52:21;;;;;;;35.00;14.88;;;3.60;99.90;;;;;;4974187;28;20083;-68
2022/11/19 03:54:47;;;;;;;31.77;13.73;;;3.90;99.90;;;;;;4957843;28;20027;-68
2022/11/19 03:57:16;;;;;;;34.78;15.38;;;4.00;99.90;;;;;;4974342;28;20029;-68
2022/11/19 03:59:42;;;;;;;33.10;14.90;;;4.00;99.90;;;;;;4957187;28;20113;-68
2022/11/19 04:02:10;;;;;;;33.03;14.85;;;3.80;99.90;;;;;;4974173;28;20101;-68
2022/11/19 04:04:36;;;;;;;31.80;14.00;;;3.70;99.90;;;;;;4957878;28;20071;-68
2022/11/19 04:07:18;;;;;;;30.25;13.30;;;3.70;99.90;;;;;;4957212;28;20031;-68
2022/11/19 04:09:44;;;;;;;36.03;14.90;;;3.30;99.90;;;;;;4974168;28;20027;-68
2022/11/19 04:12:19;;;;;;;32.65;14.18;;;3.60;99.90;;;;;;4973992;28;20085;-68
2022/11/19 04:14:44;;;;;;;33.13;14.18;;;3.80;99.90;;;;;;4956782;28;20022;-68
2022/11/19 04:17:14;;;;;;;35.70;13.43;;;3.60;99.90;;;;;;4974175;28;20106;-68
2022/11/19 04:19:39;;;;;;;32.40;14.32;;;3.60;99.90;;;;;;4956795;28;20029;-68
2022/11/19 04:22:05;;;;;;;30.85;13.80;;;3.70;99.90;;;;;;4957089;28;20117;-68
2022/11/19 04:24:31;;;;;;;32.95;13.88;;;3.90;99.90;;;;;;4956718;28;20023;-68
2022/11/19 04:26:56;;;;;;;29.73;12.13;;;3.70;99.90;;;;;;4957533;28;20053;-68
2022/11/19 04:29:22;;;;;;;30.52;13.35;;;3.60;99.90;;;;;;4957724;28;20023;-68
2022/11/19 04:31:47;;;;;;;29.55;13.32;;;3.70;99.90;;;;;;4956943;28;20061;-68
2022/11/19 04:34:13;;;;;;;28.80;12.32;;;3.70;99.90;;;;;;4956568;28;20144;-68
2022/11/19 04:36:40;;;;;;;30.58;13.10;;;3.70;99.90;;;;;;4956661;28;20158;-68
2022/11/19 04:39:07;;;;;;;27.17;12.40;;;3.70;99.90;;;;;;4973969;28;20019;-68
2022/11/19 04:41:33;;;;;;;34.95;14.65;;;3.50;99.90;;;;;;4956864;28;20023;-68
2022/11/19 04:43:58;;;;;;;29.13;12.50;;;3.70;99.90;;;;;;4973877;28;20030;-68
2022/11/19 04:46:24;;;;;;;33.40;14.13;;;3.80;99.90;;;;;;4976948;28;20027;-68
2022/11/19 04:48:49;;;;;;;33.10;13.20;;;3.90;99.90;;;;;;4960960;28;20476;-68
2022/11/19 04:51:15;;;;;;;26.92;12.02;;;3.80;99.90;;;;;;4960128;28;20022;-68
2022/11/19 04:53:41;;;;;;;33.65;13.63;;;3.90;99.90;;;;;;4977302;28;20035;-68
2022/11/19 04:56:06;;;;;;;26.27;12.48;;;3.90;99.90;;;;;;4977784;28;20136;-68
2022/11/19 04:58:32;;;;;;;29.75;11.90;;;3.80;99.90;;;;;;4961207;28;20034;-68
2022/11/19 05:00:58;;;;;;;32.35;13.57;;;3.70;99.90;;;;;;4959949;28;20027;-68
2022/11/19 05:03:23;;;;;;;27.92;11.73;;;3.80;99.90;;;;;;4959817;28;20113;-68
2022/11/19 05:05:49;;;;;;;31.08;13.15;;;3.90;99.90;;;;;;4977227;28;20042;-68
2022/11/19 05:08:15;;;;;;;31.08;12.77;;;3.90;99.90;;;;;;4959948;28;20022;-68
2022/11/19 05:10:42;;;;;;;32.15;13.15;;;3.90;99.90;;;;;;4960302;28;20048;-68
2022/11/19 05:13:07;;;;;;;23.13;11.40;;;4.00;99.90;;;;;;4959586;28;20513;-68
2022/11/19 05:18:50;;;;;;;30.88;11.95;;;3.80;99.90;;;;;;4977348;28;20035;-68
2022/11/19 05:21:16;;;;;;;28.88;12.35;;;3.80;99.90;;;;;;4959577;28;20086;-68
2022/11/19 05:23:41;;;;;;;28.83;11.73;;;3.70;99.90;;;;;;4976886;28;20038;-68
2022/11/19 05:26:07;;;;;;;33.30;12.82;;;3.70;99.90;;;;;;4959464;28;20027;-68
2022/11/19 05:28:32;;;;;;;32.58;13.57;;;3.80;99.90;;;;;;4959724;28;20023;-68
2022/11/19 05:30:58;;;;;;;31.70;13.57;;;3.70;99.90;;;;;;4959470;28;20124;-68
2022/11/19 05:33:24;;;;;;;29.95;12.98;;;3.80;99.90;;;;;;4976634;28;20061;-68
2022/11/19 05:35:50;;;;;;;27.80;11.70;;;3.90;99.90;;;;;;4959589;28;20078;-68
2022/11/19 05:38:16;;;;;;;35.75;13.43;;;3.80;99.90;;;;;;4959662;28;20026;-68
2022/11/19 05:40:45;;;;;;;28.58;12.50;;;3.80;99.90;;;;;;4959297;28;20019;-68
2022/11/19 05:43:11;;;;;;;30.77;13.30;;;3.50;99.90;;;;;;4959908;28;20041;-68
2022/11/19 05:45:37;;;;;;;27.85;12.85;;;3.60;99.90;;;;;;4959947;28;20027;-68
2022/11/19 05:48:03;;;;;;;31.23;12.57;;;3.70;99.90;;;;;;4959457;28;20030;-68
2022/11/19 05:50:28;;;;;;;28.50;12.88;;;3.60;99.90;;;;;;4959070;28;20033;-68
2022/11/19 05:52:54;;;;;;;30.00;12.38;;;3.70;99.90;;;;;;4976210;28;20456;-68
2022/11/19 05:55:19;;;;;;;30.25;12.60;;;3.90;99.90;;;;;;4976333;28;20392;-68
2022/11/19 05:57:45;;;;;;;31.92;12.90;;;3.80;99.90;;;;;;4959317;28;20027;-68
2022/11/19 06:00:11;;;;;;;30.25;12.27;;;3.60;99.90;;;;;;4959118;28;20023;-68
2022/11/19 06:02:37;;;;;;;33.63;13.27;;;3.60;99.90;;;;;;4958843;28;20043;-68
2022/11/19 06:05:04;;;;;;;32.03;13.20;;;3.40;99.90;;;;;;4976181;28;20038;-68
2022/11/19 06:07:29;;;;;;;29.75;11.48;;;3.60;99.90;;;;;;4976149;28;20030;-68
2022/11/19 06:09:55;;;;;;;32.33;13.00;;;3.70;99.90;;;;;;4958784;28;20031;-68
2022/11/19 06:12:20;;;;;;;28.98;11.88;;;3.70;99.90;;;;;;4958614;28;20034;-68
2022/11/19 06:14:46;;;;;;;33.88;13.80;;;3.90;99.90;;;;;;4958599;28;20029;-68
2022/11/19 06:17:11;;;;;;;29.70;12.40;;;4.00;99.90;;;;;;4958548;28;20078;-68
2022/11/19 06:19:37;;;;;;;31.33;12.18;;;4.00;99.90;;;;;;4975875;28;20066;-68
2022/11/19 06:22:04;;;;;;;29.95;12.27;;;3.90;99.90;;;;;;4958407;28;20087;-69
2022/11/19 06:24:29;;;;;;;34.45;11.88;;;3.80;99.90;;;;;;4959617;28;20078;-68
2022/11/19 06:26:55;;;;;;;28.63;11.75;;;3.90;99.90;;;;;;4975737;28;20026;-68
2022/11/19 06:29:20;;;;;;;37.72;13.90;;;3.80;99.90;;;;;;4958239;28;20018;-68
2022/11/19 06:31:46;;;;;;;31.08;12.88;;;3.80;99.90;;;;;;4975575;28;20066;-68
2022/11/19 06:34:12;;;;;;;27.58;11.15;;;3.90;99.90;;;;;;4958498;28;20026;-68
2022/11/19 06:36:37;;;;;;;29.77;11.82;;;3.80;99.90;;;;;;4958968;28;20062;-68
2022/11/19 06:39:03;;;;;;;26.52;11.68;;;3.60;99.90;;;;;;4975831;28;20037;-68
2022/11/19 06:41:28;;;;;;;35.53;12.00;;;3.50;99.90;;;;;;4958373;28;20385;-68
2022/11/19 06:43:54;;;;;;;31.75;12.35;;;3.70;99.90;;;;;;4957980;28;20106;-68
2022/11/19 06:46:20;;;;;;;29.48;11.77;;;3.70;99.90;;;;;;4958113;28;20109;-68
2022/11/19 06:48:45;;;;;;;33.38;11.70;;;3.80;99.90;;;;;;4958037;28;20026;-68
2022/11/19 06:51:11;;;;;;;32.58;13.23;;;3.80;99.90;;;;;;4957964;28;20030;-69
2022/11/19 06:53:37;;;;;;;28.70;11.55;;;3.70;99.90;;;;;;4975140;28;20030;-68
2022/11/19 06:56:05;;;;;;;30.27;12.02;;;3.70;99.90;;;;;;4957747;28;20027;-68
2022/11/19 06:58:31;;;;;;;28.77;12.23;;;3.50;99.90;;;;;;4957835;28;20018;-68
2022/11/19 07:00:56;;;;;;;31.85;12.75;;;3.60;99.90;;;;;;4957776;28;20018;-68
2022/11/19 07:03:23;;;;;;;27.65;11.95;;;3.70;99.90;;;;;;4957779;28;20035;-68
2022/11/19 07:05:53;;;;;;;28.98;11.82;;;3.60;99.90;;;;;;4957738;28;20097;-68
2022/11/19 07:08:19;;;;;;;31.98;12.75;;;3.60;99.90;;;;;;4974697;28;20030;-68
2022/11/19 07:10:44;;;;;;;26.95;11.02;;;3.70;99.90;;;;;;4974867;28;20085;-68
2022/11/19 07:13:10;;;;;;;28.00;11.05;;;3.90;99.90;;;;;;4974760;28;20493;-68
2022/11/19 07:15:35;;;;;;;24.38;10.38;;;3.80;99.90;;;;;;4957658;28;20019;-68
2022/11/19 07:18:01;;;;;;;27.15;11.55;;;3.80;99.90;;;;;;4974833;28;20029;-68
2022/11/19 07:20:27;;;;;;;24.13;10.15;;;3.60;99.90;;;;;;4957484;28;20026;-68
2022/11/19 07:22:53;;;;;;;23.67;10.23;;;3.60;99.90;;;;;;4974924;28;20027;-68
2022/11/19 07:25:19;;;;;;;21.05;10.00;;;3.70;99.90;;;;;;4957500;28;20034;-69
2022/11/19 07:27:46;;;;;;;26.40;11.40;;;3.60;99.90;;;;;;4957483;28;20042;-68
2022/11/19 07:30:14;;;;;;;27.35;11.02;;;3.50;99.90;;;;;;4957394;28;20027;-69
2022/11/19 07:32:41;;;;;;;26.50;11.52;;;3.40;99.90;;;;;;4957197;28;20035;-68
2022/11/19 07:35:08;;;;;;;25.90;11.07;;;3.40;99.90;;;;;;4957396;28;20023;-68
2022/11/19 07:37:34;;;;;;;29.13;10.68;;;3.50;99.90;;;;;;4957225;28;20027;-69
2022/11/19 07:40:01;;;;;;;26.20;11.65;;;3.50;99.90;;;;;;4957805;28;20054;-68
2022/11/19 07:45:10;;;;;;;24.90;10.63;;;3.20;99.90;;;;;;4974873;28;20089;-68
2022/11/19 07:47:36;;;;;;;24.30;10.52;;;3.30;99.90;;;;;;4957553;28;20031;-68
2022/11/19 07:50:01;;;;;;;25.52;10.93;;;3.40;99.90;;;;;;4957095;28;20031;-69
2022/11/19 07:52:27;;;;;;;25.15;10.90;;;3.30;99.90;;;;;;4956843;28;20031;-69
2022/11/19 07:54:52;;;;;;;22.67;9.65;;;3.50;99.90;;;;;;4957095;28;20118;-68
2022/11/19 07:57:18;;;;;;;21.73;10.82;;;3.50;99.90;;;;;;4957553;28;20027;-68
2022/11/19 07:59:44;;;;;;;22.45;10.30;;;3.60;99.90;;;;;;4956975;28;20514;-68
2022/11/19 08:02:11;;;;;;;29.50;11.68;;;3.30;99.90;;;;;;4974313;28;20454;-68
2022/11/19 08:04:36;;;;;;;25.00;11.15;;;3.20;99.90;;;;;;4956953;28;20081;-68
2022/11/19 08:07:02;;;;;;;24.38;11.00;;;3.00;99.90;;;;;;4957281;28;20031;-68
2022/11/19 08:09:27;;;;;;;29.88;11.50;;;3.00;99.90;;;;;;4956932;28;20027;-68
2022/11/19 08:11:53;;;;;;;28.17;11.75;;;3.10;99.90;;;;;;4974203;28;20066;-68
2022/11/19 08:14:18;;;;;;;28.15;12.13;;;3.20;99.90;;;;;;4956945;28;20038;-68
2022/11/19 08:19:28;;;;;;;26.00;11.93;;;3.40;99.90;;;;;;4974879;28;20034;-69
2022/11/19 08:21:54;;;;;;;26.23;11.50;;;3.10;99.90;;;;;;4960749;28;20026;-68
2022/11/19 08:24:19;;;;;;;28.50;11.80;;;2.90;99.90;;;;;;4960775;28;20109;-68
2022/11/19 08:26:46;;;;;;;24.42;11.35;;;3.00;99.90;;;;;;4960686;28;20027;-68
2022/11/19 08:29:14;;;;;;;30.77;11.30;;;2.90;99.90;;;;;;4960508;28;20037;-69
2022/11/19 08:31:41;;;;;;;26.90;12.07;;;2.90;99.90;;;;;;4960813;28;20031;-68
2022/11/19 08:34:06;;;;;;;28.10;11.52;;;3.10;99.90;;;;;;4961040;28;20035;-68
2022/11/19 08:36:32;;;;;;;32.25;12.38;;;3.00;99.90;;;;;;4960816;28;20118;-68
2022/11/19 08:38:59;;;;;;;24.80;10.95;;;2.90;99.90;;;;;;4960458;28;20110;-68
2022/11/19 08:44:11;;;;;;;25.95;11.27;;;3.10;99.90;;;;;;4978269;28;20057;-68
2022/11/19 08:46:37;;;;;;;26.58;11.30;;;3.40;99.90;;;;;;4960355;28;20026;-68
2022/11/19 08:49:03;;;;;;;25.70;11.77;;;3.40;99.90;;;;;;4960254;28;20034;-68
2022/11/19 08:51:29;;;;;;;25.25;10.90;;;3.10;99.90;;;;;;4960423;28;20026;-69
2022/11/19 08:53:54;;;;;;;27.00;12.30;;;3.20;99.90;;;;;;4960132;28;20476;-68
2022/11/19 08:56:20;;;;;;;21.38;10.40;;;3.00;99.90;;;;;;4960081;28;20474;-68
2022/11/19 08:58:46;;;;;;;28.00;11.05;;;3.20;99.90;;;;;;4960058;28;20090;-69
2022/11/19 09:01:14;;;;;;;27.20;10.95;;;3.30;99.90;;;;;;4959982;28;20058;-69
2022/11/19 09:03:40;;;;;;;28.27;11.82;;;3.00;99.90;;;;;;5019748;23;20038;-67
2022/11/19 09:06:06;;;;;;;23.65;11.32;;;3.10;99.90;;;;;;4998819;28;20033;-67
2022/11/19 09:08:32;;;;;;;25.02;10.43;;;3.10;99.90;;;;;;4998917;28;20022;-67
2022/11/19 09:10:58;;;;;;;24.85;11.00;;;2.90;99.90;;;;;;4998724;28;20184;-67
2022/11/19 09:13:24;;;;;;;29.52;11.82;;;3.10;99.90;;;;;;4990492;28;20143;-67
2022/11/19 09:15:50;;;;;;;24.80;11.07;;;3.10;99.90;;;;;;4996462;28;20030;-67
2022/11/19 09:18:16;;;;;;;20.85;10.82;;;3.10;99.90;;;;;;4979229;28;20022;-68
2022/11/19 09:20:42;;;;;;;24.80;11.07;;;3.00;99.90;;;;;;4979117;28;20018;-67
2022/11/19 09:23:08;;;;;;;24.75;11.43;;;3.10;99.90;;;;;;4979152;28;20370;-67
2022/11/19 09:25:33;;;;;;;22.88;9.85;;;3.30;99.90;;;;;;4978925;28;20030;-67
2022/11/19 09:28:33;;;;;;;26.52;9.70;;;3.20;99.90;;;;;;4978948;28;20030;-67
2022/11/19 09:31:09;;;;;;;23.00;10.48;;;3.30;99.90;;;;;;4979305;28;20034;-68
2022/11/19 09:33:37;;;;;;;29.45;10.50;;;3.60;99.90;;;;;;4978230;28;20030;-68
2022/11/19 09:36:02;;;;;;;26.48;10.57;;;3.50;99.90;;;;;;4978736;28;20073;-68
2022/11/19 09:38:30;;;;;;;24.52;10.18;;;3.40;99.90;;;;;;4978688;28;20026;-68
2022/11/19 09:41:00;;;;;;;24.15;11.00;;;3.30;99.90;;;;;;4996106;28;20389;-67
2022/11/19 09:43:44;;;;;;;27.90;11.05;;;3.20;99.90;;;;;;4978518;28;20058;-68
2022/11/19 09:46:20;;;;;;;28.35;11.57;;;3.30;99.90;;;;;;4979334;28;20034;-68
2022/11/19 09:48:48;;;;;;;23.58;10.45;;;3.70;99.90;;;;;;4978575;28;20129;-68
2022/11/19 09:51:20;;;;;;;24.95;10.65;;;3.60;99.90;;;;;;4995933;28;20030;-68
2022/11/19 09:53:49;;;;;;;;;;;3.50;99.90;;;;;;4996239;28;20109;-68
2022/11/19 09:56:50;;;;;;;21.38;9.70;;;3.70;99.90;;;;;;4995793;28;20007;-68
2022/11/19 09:59:23;;;;;;;20.90;9.88;;;3.80;99.90;;;;;;4917195;29;20036;-68
2022/11/19 10:01:49;;;;;;;24.77;10.38;;;3.70;99.90;;;;;;4901036;29;20020;-68
2022/11/19 10:04:19;;;;;;;22.63;9.57;;;3.60;99.90;;;;;;4916509;29;20056;-68
2022/11/19 10:06:57;;;;;;;20.52;8.88;;;3.70;99.90;;;;;;4900944;29;20039;-68
2022/11/19 10:09:49;;;;;;;22.73;10.15;;;3.60;99.90;;;;;;4901066;29;20036;-68
2022/11/19 10:12:18;;;;;;;;;;;3.80;99.90;;;;;;4901217;29;20088;-68
2022/11/19 10:14:55;;;;;;;20.65;9.13;;;3.90;99.90;;;;;;4900744;29;20062;-68
2022/11/19 10:17:34;;;;;;;20.70;9.45;;;3.80;99.90;;;;;;4916825;29;20044;-68
2022/11/19 10:20:19;;;;;;;20.23;8.75;;;3.80;99.90;;;;;;4916585;29;20039;-68
2022/11/19 10:22:51;;;;;;;23.60;9.73;;;4.00;99.90;;;;;;4916703;29;20033;-68
2022/11/19 10:25:21;;;;;;;17.88;8.25;;;4.10;99.90;;;;;;4901107;29;20130;-68
2022/11/19 10:27:51;;;;;;;17.17;8.68;;;4.20;99.90;;;;;;4900783;29;20020;-68
2022/11/19 10:30:20;;;;;;;18.30;8.68;;;4.20;99.90;;;;;;4916554;29;20067;-68
2022/11/19 10:32:59;;;;;;;18.38;9.07;;;4.00;99.90;;;;;;4916205;29;20036;-68
2022/11/19 10:35:48;;;;;;;18.05;8.07;;;4.00;99.90;;;;;;4948340;28;20035;-68
2022/11/19 10:38:36;;;;;;;16.10;7.90;;;4.00;99.90;;;;;;4977046;28;20039;-68
2022/11/19 10:41:16;;;;;;;19.63;9.13;;;4.10;99.90;;;;;;4958592;28;20030;-68
2022/11/19 10:43:49;;;;;;;16.73;8.77;;;4.10;99.90;;;;;;4974756;28;20031;-69
2022/11/19 10:47:04;;;;;;;17.58;8.05;;;4.10;99.90;;;;;;4975478;28;20073;-68
2022/11/19 10:49:35;;;;;;;16.65;8.25;;;3.90;99.90;;;;;;4959147;28;20023;-69
2022/11/19 10:52:01;;;;;;;15.95;7.85;;;3.90;99.90;;;;;;4975437;28;20038;-69
2022/11/19 10:54:29;;;;;;;16.13;8.30;;;3.90;99.90;;;;;;4975103;28;20101;-69
2022/11/19 10:56:56;;;;;;;15.25;7.18;;;4.00;99.90;;;;;;4975942;28;20023;-69
2022/11/19 10:59:25;;;;;;;17.67;8.50;;;4.00;99.90;;;;;;4957972;28;20030;-69
2022/11/19 11:01:55;;;;;;;13.50;6.95;;;4.00;99.90;;;;;;4975447;28;20023;-69
2022/11/19 11:04:23;;;;;;;16.05;7.72;;;4.10;99.90;;;;;;4957931;28;20481;-69
2022/11/19 11:06:52;;;;;;;16.02;7.47;;;4.20;99.90;;;;;;4975190;28;20052;-69
2022/11/19 11:09:37;;;;;;;16.08;7.72;;;4.20;99.90;;;;;;4958070;28;20030;-69
2022/11/19 11:15:20;;;;;;;14.60;6.90;;;3.90;99.90;;;;;;4975578;28;20030;-69
2022/11/19 11:17:48;;;;;;;14.32;7.28;;;3.70;99.90;;;;;;4949684;28;20030;-69
2022/11/19 11:20:16;;;;;;;14.63;7.68;;;3.70;99.90;;;;;;4957548;28;20027;-69
2022/11/19 11:22:47;;;;;;;14.00;7.28;;;3.80;99.90;;;;;;4974662;28;20026;-69
2022/11/19 11:25:25;;;;;;;16.73;7.78;;;4.00;99.90;;;;;;4958290;28;20031;-68
2022/11/19 11:28:06;;;;;;;18.15;7.70;;;4.00;99.90;;;;;;4974772;28;20026;-67
2022/11/19 11:30:32;;;;;;;14.35;7.13;;;4.00;99.90;;;;;;4958513;28;20116;-67
2022/11/19 11:33:24;;;;;;;17.65;7.35;;;4.10;99.90;;;;;;4974750;28;20046;-68
2022/11/19 11:35:51;;;;;;;;;;;4.10;99.90;;;;;;4957895;28;20033;-68
2022/11/19 11:38:21;;;;;;;16.40;7.18;;;4.20;99.90;;;;;;4957832;28;19913;-68
2022/11/19 11:41:07;;;;;;;17.35;8.13;;;4.10;99.90;;;;;;4974508;28;20030;-67
2022/11/19 11:43:37;;;;;;;13.43;6.60;;;4.20;99.90;;;;;;4957113;28;20023;-67
2022/11/19 11:46:07;;;;;;;16.92;7.07;;;4.20;99.90;;;;;;4957749;28;20031;-70
2022/11/19 11:48:41;;;;;;;17.42;7.68;;;4.10;99.90;;;;;;4957664;28;20382;-70
2022/11/19 11:51:21;;;;;;;17.02;8.00;;;4.00;99.90;;;;;;4974504;28;20034;-70
2022/11/19 11:54:06;;;;;;;16.08;7.43;;;4.10;99.90;;;;;;4974582;28;20027;-70
2022/11/19 11:56:31;;;;;;;18.27;7.70;;;4.10;99.90;;;;;;4956852;28;20398;-70
2022/11/19 11:59:32;;;;;;;19.00;8.57;;;4.10;99.90;;;;;;4974686;28;20029;-70
2022/11/19 12:02:04;;;;;;;17.35;7.45;;;4.30;99.90;;;;;;4899064;29;20032;-70
2022/11/19 12:04:30;;;;;;;16.77;7.85;;;4.10;99.90;;;;;;4914048;29;20051;-70
2022/11/19 12:07:12;;;;;;;15.32;7.03;;;4.20;99.90;;;;;;4898533;29;20040;-70
2022/11/19 12:09:52;;;;;;;;;;;4.20;99.90;;;;;;4915690;29;20044;-70
2022/11/19 12:12:27;;;;;;;17.17;7.78;;;4.40;99.90;;;;;;4898963;29;19913;-70
2022/11/19 12:15:08;;;;;;;16.17;7.22;;;4.30;99.90;;;;;;4899615;29;20111;-70
2022/11/19 12:17:34;;;;;;;14.75;7.18;;;4.30;99.90;;;;;;4899274;29;20044;-70
2022/11/19 12:20:20;;;;;;;18.42;7.97;;;4.10;99.90;;;;;;4899247;29;20032;-71
2022/11/19 12:23:06;;;;;;;16.02;8.10;;;4.10;99.90;;;;;;4914773;29;20040;-70
2022/11/19 12:25:42;;;;;;;14.70;6.75;;;4.30;99.90;;;;;;4915218;29;20028;-70
2022/11/19 12:28:28;;;;;;;16.05;7.47;;;4.30;99.90;;;;;;4898872;29;20167;-70
2022/11/19 12:31:28;;;;;;;19.20;7.93;;;4.20;99.90;;;;;;4899042;29;20039;-70
2022/11/19 12:34:32;;;;;;;15.40;7.10;;;4.30;99.90;;;;;;4899018;29;20028;-70
2022/11/19 12:37:19;;;;;;;14.65;7.60;;;4.50;99.90;;;;;;4969775;28;20046;-70
2022/11/19 12:39:57;;;;;;;17.27;8.20;;;4.50;99.90;;;;;;4957288;28;20026;-70
2022/11/19 12:42:44;;;;;;;17.40;7.40;;;4.40;99.90;;;;;;4957468;28;20034;-70
2022/11/19 12:45:45;;;;;;;16.27;7.15;;;4.40;99.90;;;;;;4957053;28;20030;-70
2022/11/19 12:48:13;;;;;;;17.30;7.72;;;4.30;99.90;;;;;;4957478;28;20112;-70
2022/11/19 12:50:42;;;;;;;13.55;6.90;;;4.40;99.90;;;;;;4974255;28;20075;-70
2022/11/19 12:53:18;;;;;;;14.38;7.63;;;4.40;99.90;;;;;;4974002;28;20363;-70
2022/11/19 12:55:47;;;;;;;19.70;7.57;;;4.30;99.90;;;;;;4974095;28;20023;-70
2022/11/19 12:58:33;;;;;;;13.20;7.10;;;4.40;99.90;;;;;;4973867;28;20023;-70
2022/11/19 13:01:04;;;;;;;16.17;6.93;;;4.40;99.90;;;;;;4956689;28;20022;-70
2022/11/19 13:04:04;;;;;;;12.27;6.57;;;4.50;99.90;;;;;;4973950;28;20035;-70
2022/11/19 13:06:39;;;;;;;15.57;7.65;;;4.50;99.90;;;;;;4956565;28;20054;-70
2022/11/19 13:09:14;;;;;;;15.52;7.20;;;4.50;99.90;;;;;;4976994;28;20034;-70
2022/11/19 13:11:48;;;;;;;19.27;7.80;;;4.40;99.90;;;;;;4960011;28;20026;-70
2022/11/19 13:14:49;;;;;;;17.63;7.63;;;4.30;99.90;;;;;;4977118;28;20026;-70
2022/11/19 13:17:28;;;;;;;16.63;7.32;;;4.10;99.90;;;;;;4917855;29;20053;-70
2022/11/19 13:20:02;;;;;;;14.98;7.00;;;4.30;99.90;;;;;;4918151;29;20032;-70
2022/11/19 13:22:36;;;;;;;17.17;7.45;;;4.30;99.90;;;;;;4917416;29;20083;-70
2022/11/19 13:25:12;;;;;;;16.23;7.85;;;4.30;99.90;;;;;;4901707;29;20055;-70
2022/11/19 13:27:37;;;;;;;13.75;7.20;;;4.30;99.90;;;;;;4902014;29;20035;-71